createdAt,value
2019-03-24T00:00:06.081Z,44.03
2019-03-24T00:02:36.329Z,45.47
2019-03-24T00:05:05.082Z,47.30
2019-03-24T00:07:33.241Z,47.10
2019-03-24T00:10:01.453Z,43.63
2019-03-24T00:12:29.741Z,41.27
2019-03-24T00:14:57.971Z,46.37
2019-03-24T00:17:26.125Z,45.13
2019-03-24T00:19:55.292Z,45.93
2019-03-24T00:22:23.554Z,50.13
2019-03-24T00:24:51.765Z,46.97
2019-03-24T00:27:19.930Z,48.40
2019-03-24T00:29:50.041Z,45.63
2019-03-24T00:32:18.226Z,45.33
2019-03-24T00:34:48.118Z,45.07
2019-03-24T00:37:16.522Z,44.73
2019-03-24T00:39:44.725Z,47.03
2019-03-24T00:42:12.927Z,42.70
2019-03-24T00:44:41.221Z,44.00
2019-03-24T00:47:09.309Z,39.53
2019-03-24T00:49:37.478Z,35.13
2019-03-24T00:52:05.711Z,42.07
2019-03-24T00:54:34.774Z,41.20
2019-03-24T00:57:03.445Z,47.00
2019-03-24T00:59:31.681Z,47.60
2019-03-24T01:01:59.838Z,41.77
2019-03-24T01:04:28.455Z,34.17
2019-03-24T01:06:56.683Z,38.43
2019-03-24T01:09:24.867Z,35.10
2019-03-24T01:11:53.084Z,42.50
2019-03-24T01:14:21.288Z,40.40
2019-03-24T01:16:49.477Z,42.83
2019-03-24T01:19:17.869Z,33.10
2019-03-24T01:21:46.589Z,41.70
2019-03-24T01:24:14.829Z,45.20
2019-03-24T01:26:43.008Z,46.23
2019-03-24T01:29:11.207Z,43.40
2019-03-24T01:31:39.600Z,45.87
2019-03-24T01:34:07.809Z,48.43
2019-03-24T01:36:35.965Z,47.10
2019-03-24T01:39:05.497Z,44.97
2019-03-24T01:41:33.657Z,41.53
2019-03-24T01:44:01.841Z,43.37
2019-03-24T01:46:30.146Z,43.10
2019-03-24T01:48:58.314Z,46.50
2019-03-24T01:51:26.616Z,46.57
2019-03-24T01:53:54.780Z,42.87
2019-03-24T01:56:24.226Z,37.13
2019-03-24T01:58:52.371Z,39.20
2019-03-24T02:01:20.577Z,39.00
2019-03-24T02:03:48.744Z,39.20
2019-03-24T02:06:18.046Z,37.67
2019-03-24T02:08:46.196Z,29.70
2019-03-24T02:11:14.490Z,30.27
2019-03-24T02:13:42.668Z,36.07
2019-03-24T02:16:10.847Z,37.90
2019-03-24T02:18:39.049Z,25.83
2019-03-24T02:21:07.205Z,29.10
2019-03-24T02:23:35.384Z,23.00
2019-03-24T02:26:03.912Z,24.53
2019-03-24T02:28:32.061Z,27.30
2019-03-24T02:33:26.246Z,34.87
2019-03-24T02:35:54.492Z,33.70
2019-03-24T02:38:22.665Z,33.63
2019-03-24T02:40:50.874Z,39.83
2019-03-24T02:43:19.210Z,37.00
2019-03-24T02:45:47.498Z,30.70
2019-03-24T02:48:15.813Z,33.87
2019-03-24T02:50:44.029Z,31.97
2019-03-24T02:53:12.200Z,33.40
2019-03-24T02:55:40.382Z,35.77
2019-03-24T02:58:08.638Z,39.53
2019-03-24T03:00:36.933Z,37.13
2019-03-24T03:03:05.234Z,40.87
2019-03-24T03:05:33.451Z,38.73
2019-03-24T03:08:01.922Z,27.23
2019-03-24T03:10:30.102Z,35.33
2019-03-24T03:12:58.259Z,37.33
2019-03-24T03:15:26.470Z,35.70
2019-03-24T03:17:54.737Z,30.63
2019-03-24T03:20:22.963Z,25.73
2019-03-24T03:22:51.224Z,27.10
2019-03-24T03:25:19.576Z,38.43
2019-03-24T03:27:47.743Z,38.20
2019-03-24T03:30:16.406Z,38.63
2019-03-24T03:32:44.640Z,39.93
2019-03-24T03:35:13.002Z,30.70
2019-03-24T03:37:41.396Z,36.60
2019-03-24T03:40:09.903Z,34.73
2019-03-24T03:42:38.637Z,39.77
2019-03-24T03:45:07.643Z,40.97
2019-03-24T03:47:35.796Z,40.67
2019-03-24T03:50:04.472Z,36.97
2019-03-24T03:52:32.722Z,39.60
2019-03-24T03:55:00.874Z,35.30
2019-03-24T03:57:29.093Z,37.43
2019-03-24T03:59:58.410Z,29.40
2019-03-24T04:02:26.714Z,30.77
2019-03-24T04:04:55.103Z,34.47
2019-03-24T04:07:26.880Z,37.80
2019-03-24T04:09:59.867Z,36.10
2019-03-24T04:12:28.173Z,41.13
2019-03-24T04:15:00.541Z,41.90
2019-03-24T04:17:29.164Z,41.60
2019-03-24T04:19:57.436Z,39.30
2019-03-24T04:22:32.231Z,36.97
2019-03-24T04:25:00.671Z,35.63
2019-03-24T04:27:28.927Z,36.63
2019-03-24T04:29:57.090Z,38.30
2019-03-24T04:32:25.250Z,40.47
2019-03-24T04:34:53.502Z,41.20
2019-03-24T04:37:21.659Z,38.97
2019-03-24T04:39:49.825Z,35.87
2019-03-24T04:42:18.018Z,31.90
2019-03-24T04:44:46.200Z,33.47
2019-03-24T04:47:16.910Z,32.77
2019-03-24T04:49:44.497Z,34.00
2019-03-24T04:52:12.646Z,35.27
2019-03-24T04:54:40.821Z,35.07
2019-03-24T04:57:08.961Z,36.50
2019-03-24T04:59:37.246Z,29.60
2019-03-24T05:02:05.430Z,32.03
2019-03-24T05:04:33.805Z,28.97
2019-03-24T05:07:02.164Z,29.97
2019-03-24T05:09:30.347Z,32.83
2019-03-24T05:11:58.531Z,31.40
2019-03-24T05:14:26.713Z,31.10
2019-03-24T05:16:54.979Z,27.37
2019-03-24T05:19:23.164Z,26.10
2019-03-24T05:21:51.397Z,25.87
2019-03-24T05:24:19.642Z,28.83
2019-03-24T05:26:47.833Z,26.50
2019-03-24T05:29:16.085Z,25.67
2019-03-24T05:31:44.293Z,30.13
2019-03-24T05:34:12.492Z,31.07
2019-03-24T05:36:40.844Z,32.53
2019-03-24T05:39:09.048Z,28.60
2019-03-24T05:41:37.224Z,25.47
2019-03-24T05:44:05.472Z,24.33
2019-03-24T05:46:33.638Z,21.03
2019-03-24T05:49:01.841Z,20.23
2019-03-24T05:51:30.030Z,20.43
2019-03-24T05:53:58.273Z,25.47
2019-03-24T05:56:26.473Z,28.53
2019-03-24T05:58:54.684Z,28.60
2019-03-24T06:01:22.895Z,25.67
2019-03-24T06:03:51.053Z,23.50
2019-03-24T06:06:19.242Z,20.83
2019-03-24T06:08:47.460Z,18.83
2019-03-24T06:11:15.672Z,22.03
2019-03-24T06:13:45.587Z,25.50
2019-03-24T06:16:13.780Z,28.53
2019-03-24T06:18:41.942Z,32.90
2019-03-24T06:21:10.142Z,32.90
2019-03-24T06:23:38.352Z,30.80
2019-03-24T06:26:06.533Z,29.03
2019-03-24T06:28:34.710Z,30.03
2019-03-24T06:31:03.142Z,29.97
2019-03-24T06:33:31.301Z,30.10
2019-03-24T06:35:59.501Z,31.37
2019-03-24T06:38:27.738Z,31.33
2019-03-24T06:40:55.925Z,33.90
2019-03-24T06:43:24.102Z,38.13
2019-03-24T06:45:52.324Z,37.53
2019-03-24T06:48:20.535Z,38.43
2019-03-24T06:50:48.714Z,42.27
2019-03-24T06:53:16.886Z,41.47
2019-03-24T06:55:45.054Z,41.63
2019-03-24T06:58:13.676Z,41.80
2019-03-24T07:00:42.821Z,42.17
2019-03-24T07:03:11.231Z,42.10
2019-03-24T07:05:39.642Z,41.47
2019-03-24T07:08:07.790Z,42.30
2019-03-24T07:10:36.013Z,41.47
2019-03-24T07:13:04.189Z,41.57
2019-03-24T07:15:32.359Z,41.53
2019-03-24T07:18:08.159Z,41.53
2019-03-24T07:20:30.726Z,43.33
2019-03-24T07:22:58.953Z,42.23
2019-03-24T07:25:27.135Z,39.37
2019-03-24T07:27:55.329Z,39.23
2019-03-24T07:30:23.665Z,37.37
2019-03-24T07:32:51.981Z,38.67
2019-03-24T07:35:20.314Z,39.40
2019-03-24T07:37:48.544Z,37.73
2019-03-24T07:40:16.801Z,37.77
2019-03-24T07:42:44.945Z,38.80
2019-03-24T07:45:13.279Z,36.87
2019-03-24T07:47:41.513Z,39.23
2019-03-24T07:50:09.881Z,38.47
2019-03-24T07:52:38.026Z,40.07
2019-03-24T07:55:06.843Z,39.03
2019-03-24T07:57:35.022Z,37.27
2019-03-24T08:00:04.493Z,37.13
2019-03-24T08:02:32.683Z,38.33
2019-03-24T08:05:00.893Z,35.93
2019-03-24T08:07:29.127Z,37.60
2019-03-24T08:09:57.327Z,37.37
2019-03-24T08:12:25.541Z,36.70
2019-03-24T08:14:54.023Z,36.67
2019-03-24T08:17:22.233Z,37.30
2019-03-24T08:19:50.434Z,38.23
2019-03-24T08:22:18.589Z,38.70
2019-03-24T08:24:46.812Z,40.10
2019-03-24T08:27:15.047Z,38.83
2019-03-24T08:29:43.307Z,39.27
2019-03-24T08:32:12.594Z,39.10
2019-03-24T08:34:41.130Z,38.03
2019-03-24T08:37:09.374Z,38.13
2019-03-24T08:39:38.605Z,37.33
2019-03-24T08:42:06.786Z,37.00
2019-03-24T08:44:35.277Z,38.23
2019-03-24T08:47:03.553Z,37.03
2019-03-24T08:49:31.797Z,36.47
2019-03-24T08:51:59.989Z,33.80
2019-03-24T08:54:28.238Z,35.93
2019-03-24T08:56:57.556Z,34.63
2019-03-24T08:59:25.865Z,33.47
2019-03-24T09:01:54.186Z,35.70
2019-03-24T09:04:22.423Z,35.53
2019-03-24T09:06:51.083Z,35.43
2019-03-24T09:09:19.242Z,34.40
2019-03-24T09:11:47.430Z,34.70
2019-03-24T09:14:15.649Z,34.23
2019-03-24T09:16:43.888Z,36.13
2019-03-24T09:19:12.152Z,37.50
2019-03-24T09:21:40.439Z,35.53
2019-03-24T09:24:08.741Z,34.70
2019-03-24T09:26:37.073Z,34.00
2019-03-24T09:29:05.286Z,35.47
2019-03-24T09:31:33.510Z,34.17
2019-03-24T09:34:01.771Z,32.67
2019-03-24T09:36:29.946Z,36.10
2019-03-24T09:38:58.158Z,36.47
2019-03-24T09:41:26.330Z,35.47
2019-03-24T09:43:54.596Z,36.03
2019-03-24T09:46:22.787Z,34.63
2019-03-24T09:48:51.081Z,35.00
2019-03-24T09:51:21.095Z,35.33
2019-03-24T09:53:49.440Z,34.63
2019-03-24T09:56:17.806Z,34.30
2019-03-24T09:58:46.800Z,36.30
2019-03-24T10:01:15.332Z,107.00
2019-03-24T10:03:43.539Z,50.50
2019-03-24T10:06:11.686Z,43.40
2019-03-24T10:08:46.960Z,35.30
2019-03-24T10:11:10.133Z,37.33
2019-03-24T10:13:38.384Z,38.53
2019-03-24T10:16:06.685Z,35.97
2019-03-24T10:18:34.885Z,36.40
2019-03-24T10:21:03.313Z,36.07
2019-03-24T10:23:31.513Z,35.77
2019-03-24T10:25:59.716Z,37.10
2019-03-24T10:28:27.905Z,34.63
2019-03-24T10:30:56.086Z,35.47
2019-03-24T10:33:24.261Z,36.90
2019-03-24T10:35:52.477Z,35.07
2019-03-24T10:38:20.654Z,35.17
2019-03-24T10:40:48.858Z,36.30
2019-03-24T10:43:17.051Z,35.13
2019-03-24T10:45:45.257Z,35.63
2019-03-24T10:48:13.469Z,35.67
2019-03-24T10:50:44.162Z,35.80
2019-03-24T10:53:13.487Z,31.40
2019-03-24T10:55:41.697Z,34.37
2019-03-24T10:58:10.980Z,35.10
2019-03-24T11:00:40.920Z,36.67
2019-03-24T11:03:09.097Z,35.60
2019-03-24T11:05:37.338Z,37.83
2019-03-24T11:08:05.562Z,39.03
2019-03-24T11:10:33.752Z,61.03
2019-03-24T11:13:01.967Z,37.63
2019-03-24T11:15:30.174Z,37.40
2019-03-24T11:17:58.410Z,39.30
2019-03-24T11:20:26.597Z,40.33
2019-03-24T11:22:54.841Z,40.70
2019-03-24T11:25:23.080Z,38.37
2019-03-24T11:27:51.256Z,37.63
2019-03-24T11:30:19.424Z,37.27
2019-03-24T11:32:47.636Z,37.70
2019-03-24T11:35:16.805Z,37.30
2019-03-24T11:37:45.028Z,36.40
2019-03-24T11:40:13.528Z,37.03
2019-03-24T11:42:41.747Z,37.70
2019-03-24T11:45:10.256Z,35.90
2019-03-24T11:47:38.539Z,37.70
2019-03-24T11:50:08.234Z,38.00
2019-03-24T11:52:36.408Z,35.90
2019-03-24T11:55:05.617Z,37.23
2019-03-24T11:57:33.819Z,37.77
2019-03-24T12:00:02.145Z,37.53
2019-03-24T12:02:30.489Z,36.60
2019-03-24T12:04:58.745Z,36.67
2019-03-24T12:07:26.979Z,37.67
2019-03-24T12:09:55.281Z,36.27
2019-03-24T12:12:23.506Z,37.23
2019-03-24T12:14:51.741Z,38.50
2019-03-24T12:17:20.026Z,37.97
2019-03-24T12:19:56.467Z,37.97
2019-03-24T12:22:18.481Z,38.77
2019-03-24T12:24:46.662Z,37.83
2019-03-24T12:27:14.913Z,38.53
2019-03-24T12:29:43.098Z,39.07
2019-03-24T12:32:11.274Z,37.30
2019-03-24T12:34:39.522Z,38.80
2019-03-24T12:37:07.756Z,36.60
2019-03-24T12:39:36.017Z,39.33
2019-03-24T12:42:04.236Z,39.30
2019-03-24T12:44:32.541Z,39.83
2019-03-24T12:47:00.693Z,38.97
2019-03-24T12:49:28.897Z,39.40
2019-03-24T12:51:57.181Z,39.10
2019-03-24T12:54:25.667Z,41.17
2019-03-24T12:56:53.981Z,39.93
2019-03-24T12:59:22.180Z,38.40
2019-03-24T13:01:52.782Z,38.40
2019-03-24T13:04:20.618Z,39.80
2019-03-24T13:06:48.808Z,38.03
2019-03-24T13:09:17.016Z,38.27
2019-03-24T13:11:45.238Z,37.77
2019-03-24T13:14:13.417Z,37.27
2019-03-24T13:16:41.725Z,38.03
2019-03-24T13:19:09.885Z,36.83
2019-03-24T13:21:38.129Z,37.10
2019-03-24T13:24:06.383Z,37.47
2019-03-24T13:26:34.594Z,35.27
2019-03-24T13:29:02.896Z,38.30
2019-03-24T13:31:32.199Z,35.37
2019-03-24T13:34:00.410Z,34.60
2019-03-24T13:36:28.622Z,36.40
2019-03-24T13:38:56.845Z,37.20
2019-03-24T13:41:25.078Z,36.47
2019-03-24T13:43:53.296Z,34.83
2019-03-24T13:46:21.506Z,35.53
2019-03-24T13:48:49.749Z,37.30
2019-03-24T13:51:19.007Z,36.83
2019-03-24T13:53:47.385Z,37.33
2019-03-24T13:56:16.027Z,36.10
2019-03-24T13:58:44.255Z,36.00
2019-03-24T14:01:13.214Z,40.77
2019-03-24T14:03:41.412Z,35.40
2019-03-24T14:06:09.631Z,36.00
2019-03-24T14:08:37.957Z,34.93
2019-03-24T14:11:06.219Z,36.43
2019-03-24T14:13:35.029Z,37.10
2019-03-24T14:16:03.271Z,35.97
2019-03-24T14:18:31.519Z,36.77
2019-03-24T14:21:01.245Z,38.37
2019-03-24T14:23:29.469Z,35.17
2019-03-24T14:25:57.689Z,35.90
2019-03-24T14:28:25.998Z,38.17
2019-03-24T14:30:54.405Z,34.90
2019-03-24T14:33:22.640Z,34.07
2019-03-24T14:35:50.850Z,36.73
2019-03-24T14:38:19.107Z,35.73
2019-03-24T14:40:47.410Z,35.13
2019-03-24T14:43:17.418Z,36.33
2019-03-24T14:45:45.818Z,34.90
2019-03-24T14:48:14.287Z,35.03
2019-03-24T14:50:53.641Z,35.47
2019-03-24T14:53:12.899Z,34.30
2019-03-24T14:55:41.140Z,34.33
2019-03-24T14:58:09.357Z,34.63
2019-03-24T15:00:39.944Z,36.00
2019-03-24T15:03:08.339Z,36.47
2019-03-24T15:05:36.535Z,34.63
2019-03-24T15:08:05.409Z,35.47
2019-03-24T15:10:33.768Z,37.13
2019-03-24T15:13:03.544Z,36.40
2019-03-24T15:15:31.963Z,35.33
2019-03-24T15:18:00.214Z,36.90
2019-03-24T15:20:28.464Z,37.67
2019-03-24T15:22:56.818Z,36.80
2019-03-24T15:25:24.988Z,37.47
2019-03-24T15:27:53.254Z,37.37
2019-03-24T15:30:21.610Z,37.80
2019-03-24T15:32:53.606Z,36.27
2019-03-24T15:35:21.956Z,36.87
2019-03-24T15:37:50.170Z,35.77
2019-03-24T15:40:18.452Z,36.13
2019-03-24T15:42:47.797Z,38.80
2019-03-24T15:45:16.189Z,37.17
2019-03-24T15:47:44.554Z,36.67
2019-03-24T15:50:13.085Z,36.97
2019-03-24T15:52:41.395Z,36.80
2019-03-24T15:55:11.633Z,37.40
2019-03-24T15:57:40.552Z,36.23
2019-03-24T16:00:10.234Z,36.50
2019-03-24T16:02:38.648Z,35.50
2019-03-24T16:05:08.683Z,35.33
2019-03-24T16:07:37.014Z,35.07
2019-03-24T16:10:05.765Z,34.23
2019-03-24T16:12:34.158Z,33.93
2019-03-24T16:15:02.637Z,34.20
2019-03-24T16:17:33.331Z,32.90
2019-03-24T16:20:01.529Z,33.30
2019-03-24T16:22:29.902Z,32.77
2019-03-24T16:24:58.417Z,34.07
2019-03-24T16:27:26.635Z,34.07
2019-03-24T16:29:54.913Z,33.27
2019-03-24T16:32:29.823Z,32.53
2019-03-24T16:35:02.227Z,31.27
2019-03-24T16:37:30.403Z,31.63
2019-03-24T16:39:58.637Z,32.37
2019-03-24T16:42:26.867Z,31.10
2019-03-24T16:44:55.149Z,31.30
2019-03-24T16:47:23.349Z,30.20
2019-03-24T16:49:51.605Z,31.97
2019-03-24T16:52:19.791Z,30.93
2019-03-24T16:54:48.081Z,30.30
2019-03-24T16:57:16.355Z,28.37
2019-03-24T16:59:45.597Z,29.80
2019-03-24T17:02:13.863Z,29.83
2019-03-24T17:04:42.130Z,28.77
2019-03-24T17:07:10.333Z,28.77
2019-03-24T17:09:38.614Z,26.20
2019-03-24T17:12:06.813Z,27.17
2019-03-24T17:14:36.860Z,28.80
2019-03-24T17:17:05.325Z,27.87
2019-03-24T17:19:33.682Z,32.47
2019-03-24T17:22:02.086Z,28.47
2019-03-24T17:24:30.346Z,27.40
2019-03-24T17:26:58.567Z,27.07
2019-03-24T17:29:26.881Z,25.87
2019-03-24T17:31:55.145Z,26.50
2019-03-24T17:34:23.389Z,27.43
2019-03-24T17:36:51.585Z,26.40
2019-03-24T17:39:19.850Z,26.50
2019-03-24T17:41:48.197Z,24.90
2019-03-24T17:44:16.510Z,26.23
2019-03-24T17:46:46.026Z,27.37
2019-03-24T17:49:14.270Z,26.93
2019-03-24T17:51:42.493Z,25.43
2019-03-24T17:54:10.715Z,22.87
2019-03-24T17:56:38.892Z,23.63
2019-03-24T17:59:07.233Z,23.57
2019-03-24T18:01:35.421Z,22.80
2019-03-24T18:04:04.690Z,22.03
2019-03-24T18:06:32.919Z,22.90
2019-03-24T18:09:01.281Z,21.23
2019-03-24T18:11:31.400Z,20.73
2019-03-24T18:13:59.935Z,20.83
2019-03-24T18:16:28.548Z,18.67
2019-03-24T18:18:56.797Z,19.43
2019-03-24T18:21:25.127Z,17.67
2019-03-24T18:23:53.349Z,21.77
2019-03-24T18:26:21.536Z,15.57
2019-03-24T18:28:49.825Z,14.67
2019-03-24T18:31:19.128Z,15.57
2019-03-24T18:33:47.379Z,15.20
2019-03-24T18:36:15.621Z,15.03
2019-03-24T18:38:43.885Z,14.17
2019-03-24T18:41:12.241Z,14.80
2019-03-24T18:43:40.582Z,15.57
2019-03-24T18:46:08.898Z,16.30
2019-03-24T18:48:37.261Z,16.77
2019-03-24T18:51:05.480Z,15.53
2019-03-24T18:53:33.701Z,14.03
2019-03-24T18:56:01.955Z,15.07
2019-03-24T18:58:32.026Z,19.00
2019-03-24T19:01:00.307Z,14.87
2019-03-24T19:03:28.705Z,13.73
2019-03-24T19:05:56.964Z,12.87
2019-03-24T19:08:25.195Z,15.10
2019-03-24T19:10:53.546Z,13.33
2019-03-24T19:13:21.906Z,12.60
2019-03-24T19:15:50.188Z,12.77
2019-03-24T19:18:18.530Z,11.87
2019-03-24T19:20:46.775Z,12.03
2019-03-24T19:23:14.961Z,11.70
2019-03-24T19:25:43.205Z,11.63
2019-03-24T19:28:11.399Z,11.70
2019-03-24T19:30:39.896Z,10.63
2019-03-24T19:33:08.068Z,12.23
2019-03-24T19:35:36.441Z,12.50
2019-03-24T19:38:04.803Z,11.10
2019-03-24T19:40:33.264Z,12.30
2019-03-24T19:43:01.544Z,12.10
2019-03-24T19:45:29.904Z,12.30
2019-03-24T19:47:58.242Z,12.23
2019-03-24T19:50:26.493Z,11.97
2019-03-24T19:52:54.820Z,12.03
2019-03-24T19:55:23.096Z,11.17
2019-03-24T19:57:51.284Z,11.67
2019-03-24T20:00:19.965Z,11.37
2019-03-24T20:02:48.410Z,11.60
2019-03-24T20:05:16.636Z,11.17
2019-03-24T20:07:48.068Z,10.97
2019-03-24T20:10:16.310Z,12.47
2019-03-24T20:12:44.517Z,12.30
2019-03-24T20:15:12.822Z,13.30
2019-03-24T20:17:41.161Z,14.37
2019-03-24T20:20:09.533Z,14.00
2019-03-24T20:22:37.781Z,15.10
2019-03-24T20:25:06.326Z,14.37
2019-03-24T20:27:34.535Z,15.20
2019-03-24T20:30:03.092Z,14.93
2019-03-24T20:32:33.169Z,16.23
2019-03-24T20:35:01.379Z,15.83
2019-03-24T20:37:29.597Z,16.13
2019-03-24T20:39:57.749Z,16.03
2019-03-24T20:42:25.977Z,17.33
2019-03-24T20:44:54.233Z,16.90
2019-03-24T20:47:22.469Z,18.80
2019-03-24T20:49:50.689Z,18.30
2019-03-24T20:52:18.992Z,18.00
2019-03-24T20:54:47.245Z,19.20
2019-03-24T20:57:15.479Z,18.77
2019-03-24T20:59:43.685Z,18.53
2019-03-24T21:02:12.971Z,19.53
2019-03-24T21:04:41.191Z,19.07
2019-03-24T21:07:09.453Z,20.03
2019-03-24T21:09:37.809Z,19.70
2019-03-24T21:12:06.097Z,21.73
2019-03-24T21:14:34.334Z,20.60
2019-03-24T21:17:02.792Z,20.13
2019-03-24T21:19:31.052Z,20.50
2019-03-24T21:21:59.252Z,20.27
2019-03-24T21:24:28.486Z,21.53
2019-03-24T21:26:56.681Z,20.87
2019-03-24T21:29:24.892Z,21.37
2019-03-24T21:31:55.129Z,20.60
2019-03-24T21:34:23.237Z,19.77
2019-03-24T21:36:51.463Z,21.17
2019-03-24T21:39:20.659Z,21.30
2019-03-24T21:41:48.876Z,21.63
2019-03-24T21:44:17.135Z,21.53
2019-03-24T21:46:46.405Z,20.07
2019-03-24T21:49:14.593Z,20.40
2019-03-24T21:51:42.761Z,19.33
2019-03-24T21:54:10.984Z,21.23
2019-03-24T21:56:39.194Z,18.97
2019-03-24T21:59:07.440Z,20.00
2019-03-24T22:01:35.629Z,20.13
2019-03-24T22:04:03.903Z,20.27
2019-03-24T22:06:32.321Z,19.50
2019-03-24T22:09:00.654Z,18.17
2019-03-24T22:11:28.914Z,19.13
2019-03-24T22:13:57.116Z,18.47
2019-03-24T22:16:25.326Z,19.37
2019-03-24T22:18:53.652Z,18.80
2019-03-24T22:21:21.881Z,19.40
2019-03-24T22:23:52.470Z,18.10
2019-03-24T22:26:20.352Z,16.97
2019-03-24T22:28:48.582Z,17.20
2019-03-24T22:31:16.797Z,18.43
2019-03-24T22:33:44.994Z,17.13
2019-03-24T22:36:13.194Z,17.03
2019-03-24T22:38:41.389Z,18.77
2019-03-24T22:41:09.729Z,18.47
2019-03-24T22:43:37.951Z,19.30
2019-03-24T22:46:06.167Z,18.73
2019-03-24T22:48:34.350Z,17.33
2019-03-24T22:51:02.828Z,19.90
2019-03-24T22:53:31.005Z,17.97
2019-03-24T22:55:59.177Z,20.17
2019-03-24T22:58:27.431Z,21.00
2019-03-24T23:00:56.185Z,20.13
2019-03-24T23:03:25.303Z,18.97
2019-03-24T23:05:53.885Z,19.57
2019-03-24T23:08:22.150Z,20.20
2019-03-24T23:10:50.344Z,19.93
2019-03-24T23:13:18.825Z,19.40
2019-03-24T23:15:47.030Z,18.13
2019-03-24T23:18:15.229Z,18.07
2019-03-24T23:20:43.453Z,16.83
2019-03-24T23:23:11.705Z,16.40
2019-03-24T23:25:39.917Z,14.27
2019-03-24T23:28:08.247Z,15.47
2019-03-24T23:30:36.480Z,13.27
2019-03-24T23:33:04.907Z,13.30
2019-03-24T23:35:33.198Z,14.00
2019-03-24T23:38:02.482Z,14.50
2019-03-24T23:40:30.779Z,14.53
2019-03-24T23:42:58.933Z,14.43
2019-03-24T23:45:27.324Z,13.33
2019-03-24T23:47:55.514Z,14.23
2019-03-24T23:50:23.729Z,13.83
2019-03-24T23:52:51.897Z,12.63
2019-03-24T23:55:20.104Z,12.17
2019-03-24T23:57:48.316Z,12.77
